createdAt,value
2023-05-17T00:00:10.601Z,94495.38
2023-05-17T00:02:38.858Z,94500.72
2023-05-17T00:05:07.593Z,94507.75
2023-05-17T00:07:35.532Z,94493.88
2023-05-17T00:10:03.525Z,94512.47
2023-05-17T00:12:33.150Z,94487.69
2023-05-17T00:15:01.114Z,94503.09
2023-05-17T00:17:29.096Z,94497.09
2023-05-17T00:19:57.107Z,94483.13
2023-05-17T00:22:25.181Z,94493.03
2023-05-17T00:24:53.151Z,94491.00
2023-05-17T00:27:21.043Z,94502.34
2023-05-17T00:29:50.570Z,94497.88
2023-05-17T00:32:19.101Z,94505.84
2023-05-17T00:34:47.151Z,94507.53
2023-05-17T00:37:15.286Z,94503.31
2023-05-17T00:39:43.231Z,94506.06
2023-05-17T00:42:12.890Z,94496.34
2023-05-17T00:44:41.348Z,94514.50
2023-05-17T00:47:10.892Z,94517.97
2023-05-17T00:49:38.999Z,94520.69
2023-05-17T00:52:07.685Z,94514.22
2023-05-17T00:54:36.310Z,94493.06
2023-05-17T00:57:05.399Z,94486.78
2023-05-17T00:59:33.674Z,94510.38
2023-05-17T01:02:01.851Z,94526.34
2023-05-17T01:04:31.528Z,94461.91
2023-05-17T01:07:00.060Z,94530.75
2023-05-17T01:09:28.276Z,94533.41
2023-05-17T01:12:09.309Z,94541.19
2023-05-17T01:14:48.356Z,94525.28
2023-05-17T01:17:19.084Z,94520.47
2023-05-17T01:19:58.681Z,94515.28
2023-05-17T01:22:40.489Z,94528.59
2023-05-17T01:25:29.980Z,94519.44
2023-05-17T01:28:02.571Z,94511.41
2023-05-17T01:30:31.427Z,94515.47
2023-05-17T01:33:00.927Z,94514.41
2023-05-17T01:35:29.548Z,94523.88
2023-05-17T01:37:57.951Z,94442.78
2023-05-17T01:40:26.230Z,94516.44
2023-05-17T01:42:58.281Z,94436.50
2023-05-17T01:45:33.066Z,94514.59
2023-05-17T01:48:14.097Z,94513.56
2023-05-17T01:50:43.978Z,94509.94
2023-05-17T01:53:16.879Z,94449.66
2023-05-17T01:55:49.594Z,94502.94
2023-05-17T01:58:21.611Z,94495.03
2023-05-17T02:00:53.567Z,94478.25
2023-05-17T02:03:22.016Z,94497.38
2023-05-17T02:05:50.027Z,94476.44
2023-05-17T02:08:17.943Z,94465.28
2023-05-17T02:10:45.852Z,94502.03
2023-05-17T02:13:13.963Z,94440.72
2023-05-17T02:15:41.870Z,94481.75
2023-05-17T02:18:11.850Z,94508.91
2023-05-17T02:20:39.950Z,94497.22
2023-05-17T02:23:07.909Z,94501.41
2023-05-17T02:25:35.985Z,94475.41
2023-05-17T02:28:03.934Z,94509.31
2023-05-17T02:30:31.818Z,94506.31
2023-05-17T02:32:59.897Z,94496.28
2023-05-17T02:35:30.139Z,94483.47
2023-05-17T02:37:58.226Z,94508.03
2023-05-17T02:40:26.220Z,94498.34
2023-05-17T02:42:54.167Z,94509.81
2023-05-17T02:45:22.111Z,94513.88
2023-05-17T02:47:50.126Z,94519.00
2023-05-17T02:50:18.476Z,94509.75
2023-05-17T02:52:47.834Z,94508.41
2023-05-17T02:55:15.925Z,94538.09
2023-05-17T02:57:43.951Z,94542.28
2023-05-17T03:00:12.466Z,94540.41
2023-05-17T03:02:40.485Z,94539.38
2023-05-17T03:05:10.271Z,94547.28
2023-05-17T03:07:38.364Z,94485.97
2023-05-17T03:10:08.598Z,94553.59
2023-05-17T03:12:36.574Z,94552.75
2023-05-17T03:15:05.385Z,94556.84
2023-05-17T03:17:33.389Z,94553.72
2023-05-17T03:20:01.386Z,94569.06
2023-05-17T03:22:29.397Z,94564.03
2023-05-17T03:24:57.427Z,94567.81
2023-05-17T03:27:26.877Z,94564.31
2023-05-17T03:29:54.767Z,94544.69
2023-05-17T03:32:23.214Z,94566.41
2023-05-17T03:34:51.451Z,94557.63
2023-05-17T03:37:19.337Z,94541.97
2023-05-17T03:39:47.291Z,94557.72
2023-05-17T03:42:15.377Z,94522.94
2023-05-17T03:44:44.729Z,94539.34
2023-05-17T03:47:12.628Z,94540.91
2023-05-17T03:49:40.640Z,94550.31
2023-05-17T03:52:08.580Z,94550.00
2023-05-17T03:54:36.493Z,94551.66
2023-05-17T03:57:04.551Z,94550.75
2023-05-17T03:59:32.490Z,94529.00
2023-05-17T04:02:01.832Z,94557.84
2023-05-17T04:04:29.881Z,94555.47
2023-05-17T04:06:58.077Z,94563.28
2023-05-17T04:09:26.098Z,94563.81
2023-05-17T04:11:54.148Z,94564.25
2023-05-17T04:14:22.514Z,94573.34
2023-05-17T04:16:50.479Z,94573.06
2023-05-17T04:19:19.925Z,94575.75
2023-05-17T04:21:47.904Z,94573.66
2023-05-17T04:24:15.798Z,94567.38
2023-05-17T04:26:44.561Z,94489.91
2023-05-17T04:29:12.443Z,94555.66
2023-05-17T04:31:40.628Z,94562.66
2023-05-17T04:34:08.756Z,94556.16
2023-05-17T04:36:38.020Z,94560.94
2023-05-17T04:39:06.082Z,94544.03
2023-05-17T04:41:33.994Z,94545.81
2023-05-17T04:44:01.946Z,94554.78
2023-05-17T04:46:30.047Z,94561.34
2023-05-17T04:48:58.342Z,94547.00
2023-05-17T04:51:27.061Z,94483.25
2023-05-17T04:53:56.612Z,94552.78
2023-05-17T04:56:24.529Z,94552.53
2023-05-17T04:58:53.080Z,94516.78
2023-05-17T05:01:22.336Z,94550.28
2023-05-17T05:03:50.324Z,94544.06
2023-05-17T05:06:18.282Z,94551.53
2023-05-17T05:08:46.350Z,94548.28
2023-05-17T05:11:15.651Z,94550.09
2023-05-17T05:13:43.568Z,94548.34
2023-05-17T05:16:12.212Z,94513.34
2023-05-17T05:18:40.221Z,94528.00
2023-05-17T05:21:08.342Z,94521.06
2023-05-17T05:23:36.661Z,94562.75
2023-05-17T05:26:05.368Z,94495.47
2023-05-17T05:28:34.674Z,94554.81
2023-05-17T05:31:02.686Z,94556.06
2023-05-17T05:33:32.107Z,94553.06
2023-05-17T05:36:00.203Z,94557.78
2023-05-17T05:38:28.188Z,94522.78
2023-05-17T05:40:56.073Z,94555.47
2023-05-17T05:43:23.994Z,94558.66
2023-05-17T05:45:53.372Z,94557.19
2023-05-17T05:48:21.480Z,94557.00
2023-05-17T05:50:49.470Z,94562.81
2023-05-17T05:53:19.307Z,94571.78
2023-05-17T05:55:48.087Z,94565.41
2023-05-17T05:58:16.044Z,94568.00
2023-05-17T06:00:44.065Z,94572.91
2023-05-17T06:03:13.452Z,94553.88
2023-05-17T06:05:41.434Z,94572.06
2023-05-17T06:08:09.649Z,94550.28
2023-05-17T06:10:37.539Z,94580.00
2023-05-17T06:13:05.572Z,94577.50
2023-05-17T06:15:33.897Z,94567.84
2023-05-17T06:18:01.902Z,94580.25
2023-05-17T06:20:31.561Z,94580.28
2023-05-17T06:22:59.866Z,94581.53
2023-05-17T06:25:27.836Z,94584.56
2023-05-17T06:27:55.716Z,94589.97
2023-05-17T06:30:23.845Z,94583.28
2023-05-17T06:32:52.437Z,94597.81
2023-05-17T06:35:20.612Z,94598.72
2023-05-17T06:37:49.971Z,94601.13
2023-05-17T06:40:18.218Z,94580.19
2023-05-17T06:42:46.166Z,94543.69
2023-05-17T06:45:14.268Z,94592.44
2023-05-17T06:47:42.389Z,94592.69
2023-05-17T06:50:10.910Z,94590.06
2023-05-17T06:52:39.034Z,94592.53
2023-05-17T06:55:09.362Z,94599.50
2023-05-17T06:57:37.586Z,94604.59
2023-05-17T07:00:11.078Z,94595.97
2023-05-17T07:02:39.285Z,94595.50
2023-05-17T07:05:08.364Z,94597.81
2023-05-17T07:07:36.432Z,94604.09
2023-05-17T07:10:04.560Z,94611.00
2023-05-17T07:12:34.843Z,94615.47
2023-05-17T07:15:02.971Z,94612.44
2023-05-17T07:17:30.979Z,94593.53
2023-05-17T07:19:59.322Z,94603.00
2023-05-17T07:22:27.396Z,94608.22
2023-05-17T07:24:55.327Z,94549.19
2023-05-17T07:27:23.212Z,94618.97
2023-05-17T07:29:52.564Z,94622.53
2023-05-17T07:32:21.734Z,94616.03
2023-05-17T07:34:49.670Z,94626.00
2023-05-17T07:37:17.541Z,94623.00
2023-05-17T07:39:45.567Z,94634.19
2023-05-17T07:42:13.565Z,94602.69
2023-05-17T07:44:41.486Z,94606.47
2023-05-17T07:47:10.906Z,94624.16
2023-05-17T07:49:38.846Z,94601.16
2023-05-17T07:52:07.063Z,94630.97
2023-05-17T07:54:35.469Z,94624.50
2023-05-17T07:57:03.421Z,94621.78
2023-05-17T07:59:31.329Z,94620.06
2023-05-17T08:01:59.239Z,94623.53
2023-05-17T08:04:28.796Z,94621.78
2023-05-17T08:06:56.804Z,94630.22
2023-05-17T08:09:24.736Z,94598.47
2023-05-17T08:11:52.905Z,94620.56
2023-05-17T08:14:24.497Z,94618.09
2023-05-17T08:16:52.703Z,94563.25
2023-05-17T08:19:20.855Z,94595.50
2023-05-17T08:21:50.352Z,94616.06
2023-05-17T08:24:19.252Z,94598.66
2023-05-17T08:26:47.134Z,94603.84
2023-05-17T08:29:15.040Z,94609.25
2023-05-17T08:31:43.320Z,94592.00
2023-05-17T08:34:11.863Z,94601.03
2023-05-17T08:36:39.905Z,94603.22
2023-05-17T08:39:09.904Z,94612.00
2023-05-17T08:41:37.797Z,94593.25
2023-05-17T08:44:07.258Z,94608.81
2023-05-17T08:46:36.995Z,94617.56
2023-05-17T08:49:08.093Z,94610.84
2023-05-17T08:51:39.619Z,94607.28
2023-05-17T08:54:08.504Z,94605.13
2023-05-17T08:56:40.318Z,94599.00
2023-05-17T08:59:10.490Z,94599.25
2023-05-17T09:01:40.511Z,94592.56
2023-05-17T09:04:10.893Z,94610.47
2023-05-17T09:06:38.809Z,94606.47
2023-05-17T09:09:08.739Z,94607.81
2023-05-17T09:11:38.561Z,94526.25
2023-05-17T09:14:08.436Z,94587.94
2023-05-17T09:16:38.521Z,94567.00
2023-05-17T09:19:09.200Z,94590.00
2023-05-17T09:21:38.104Z,94568.63
2023-05-17T09:24:08.349Z,94580.25
2023-05-17T09:26:42.219Z,94599.81
2023-05-17T09:29:11.855Z,94596.81
2023-05-17T09:31:40.912Z,94553.75
2023-05-17T09:34:09.765Z,94570.50
2023-05-17T09:36:38.819Z,94582.22
2023-05-17T09:39:12.340Z,94588.41
2023-05-17T09:41:47.246Z,94592.41
2023-05-17T09:44:15.932Z,94582.28
2023-05-17T09:46:46.341Z,94599.50
2023-05-17T09:49:15.221Z,94581.28
2023-05-17T09:51:44.355Z,94598.97
2023-05-17T09:54:12.727Z,94607.03
2023-05-17T09:56:42.249Z,94594.06
2023-05-17T09:59:15.367Z,94594.50
2023-05-17T10:01:45.311Z,94579.28
2023-05-17T10:04:20.554Z,94583.34
2023-05-17T10:06:52.302Z,94596.94
2023-05-17T10:09:23.873Z,94580.84
2023-05-17T10:11:54.391Z,94578.59
2023-05-17T10:14:28.012Z,94582.00
2023-05-17T10:16:56.434Z,94530.69
2023-05-17T10:19:25.910Z,94579.16
2023-05-17T10:21:55.061Z,94573.28
2023-05-17T10:24:24.547Z,94544.72
2023-05-17T10:26:52.683Z,94562.97
2023-05-17T10:29:21.630Z,94544.84
2023-05-17T10:31:52.248Z,94533.88
2023-05-17T10:34:21.099Z,94520.16
2023-05-17T10:36:50.765Z,94509.88
2023-05-17T10:39:19.145Z,94512.63
2023-05-17T10:41:50.749Z,94487.63
2023-05-17T10:44:20.396Z,94507.03
2023-05-17T10:46:57.443Z,94461.69
2023-05-17T10:49:29.805Z,94468.22
2023-05-17T10:51:58.447Z,94480.41
2023-05-17T10:54:36.807Z,94455.75
2023-05-17T10:57:08.744Z,94442.81
2023-05-17T10:59:37.456Z,94453.31
2023-05-17T11:02:08.258Z,94415.34
2023-05-17T11:04:38.581Z,94446.88
2023-05-17T11:07:27.438Z,94437.50
2023-05-17T11:09:57.735Z,94454.06
2023-05-17T11:12:32.154Z,94451.09
2023-05-17T11:15:01.979Z,94430.63
2023-05-17T11:17:37.844Z,94459.06
2023-05-17T11:20:13.253Z,94466.38
2023-05-17T11:22:42.848Z,94455.19
2023-05-17T11:25:13.104Z,94452.66
2023-05-17T11:27:49.245Z,94482.59
2023-05-17T11:30:21.799Z,94498.44
2023-05-17T11:32:53.700Z,94502.31
2023-05-17T11:35:25.865Z,94524.84
2023-05-17T11:37:54.923Z,94531.22
2023-05-17T11:40:29.072Z,94518.78
2023-05-17T11:43:17.252Z,94510.91
2023-05-17T11:45:47.954Z,94530.94
2023-05-17T11:48:19.468Z,94525.94
2023-05-17T11:50:49.986Z,94532.25
2023-05-17T11:53:18.799Z,94532.50
2023-05-17T11:55:48.510Z,94493.66
2023-05-17T11:58:18.711Z,94508.41
2023-05-17T12:00:47.022Z,94527.34
2023-05-17T12:03:24.714Z,94518.13
2023-05-17T12:06:02.521Z,94547.56
2023-05-17T12:08:32.224Z,94534.75
2023-05-17T12:11:00.274Z,94529.66
2023-05-17T12:13:30.378Z,94536.69
2023-05-17T12:16:01.165Z,94541.28
2023-05-17T12:18:38.697Z,94530.09
2023-05-17T12:21:08.163Z,94480.34
2023-05-17T12:23:38.072Z,94526.44
2023-05-17T12:26:11.154Z,94512.00
2023-05-17T12:28:40.289Z,94500.66
2023-05-17T12:31:12.303Z,94529.94
2023-05-17T12:33:43.692Z,94512.47
2023-05-17T12:36:13.354Z,94524.91
2023-05-17T12:38:42.650Z,94513.50
2023-05-17T12:41:13.122Z,94518.88
2023-05-17T12:43:41.703Z,94512.25
2023-05-17T12:46:11.553Z,94516.47
2023-05-17T12:48:43.254Z,94514.78
2023-05-17T12:51:12.710Z,94482.03
2023-05-17T12:53:41.956Z,94502.00
2023-05-17T12:56:15.558Z,94481.22
2023-05-17T12:58:43.625Z,94493.66
2023-05-17T13:01:14.646Z,94492.00
2023-05-17T13:03:51.347Z,94506.09
2023-05-17T13:06:19.473Z,94504.75
2023-05-17T13:08:59.823Z,94512.38
2023-05-17T13:11:27.817Z,94497.63
2023-05-17T13:13:55.852Z,94517.09
2023-05-17T13:16:30.258Z,94493.63
2023-05-17T13:18:59.828Z,94476.13
2023-05-17T13:21:27.828Z,94509.81
2023-05-17T13:23:55.937Z,94512.72
2023-05-17T13:26:23.894Z,94516.00
2023-05-17T13:28:51.897Z,94500.34
2023-05-17T13:31:19.915Z,94452.47
2023-05-17T13:33:50.212Z,94507.41
2023-05-17T13:36:19.815Z,94510.19
2023-05-17T13:38:47.816Z,94500.13
2023-05-17T13:41:15.850Z,94506.63
2023-05-17T13:43:43.983Z,94505.63
2023-05-17T13:46:12.013Z,94507.34
2023-05-17T13:48:42.610Z,94508.00
2023-05-17T13:51:11.036Z,94479.91
2023-05-17T13:53:41.614Z,94507.81
2023-05-17T13:56:09.648Z,94506.16
2023-05-17T13:58:37.742Z,94512.84
2023-05-17T14:01:06.520Z,94443.94
2023-05-17T14:03:34.901Z,94506.63
2023-05-17T14:06:07.887Z,94492.41
2023-05-17T14:08:35.863Z,94516.84
2023-05-17T14:11:05.257Z,94497.34
2023-05-17T14:13:33.596Z,94508.47
2023-05-17T14:16:01.678Z,94501.88
2023-05-17T14:18:31.450Z,94494.31
2023-05-17T14:21:01.252Z,94508.47
2023-05-17T14:23:29.332Z,94497.41
2023-05-17T14:25:57.889Z,94511.84
2023-05-17T14:28:27.294Z,94504.38
2023-05-17T14:30:55.265Z,94505.03
2023-05-17T14:33:23.384Z,94506.22
2023-05-17T14:35:51.516Z,94499.97
2023-05-17T14:38:20.541Z,94498.50
2023-05-17T14:40:48.458Z,94498.31
2023-05-17T14:43:16.628Z,94492.13
2023-05-17T14:45:46.093Z,94500.25
2023-05-17T14:48:14.205Z,94510.28
2023-05-17T14:50:42.288Z,94512.31
2023-05-17T14:53:10.301Z,94511.41
2023-05-17T14:55:41.190Z,94520.50
2023-05-17T14:58:09.291Z,94515.97
2023-05-17T15:00:37.355Z,94487.16
2023-05-17T15:03:06.857Z,94474.38
2023-05-17T15:05:34.955Z,94521.28
2023-05-17T15:08:03.076Z,94527.34
2023-05-17T15:10:31.808Z,94526.06
2023-05-17T15:12:59.838Z,94529.59
2023-05-17T15:15:28.280Z,94536.81
2023-05-17T15:17:56.602Z,94525.91
2023-05-17T15:20:26.055Z,94539.56
2023-05-17T15:22:54.024Z,94533.88
2023-05-17T15:25:22.688Z,94540.84
2023-05-17T15:27:51.356Z,94544.53
2023-05-17T15:30:20.466Z,94548.84
2023-05-17T15:32:48.979Z,94560.47
2023-05-17T15:35:17.548Z,94511.31
2023-05-17T15:37:47.406Z,94567.13
2023-05-17T15:40:16.949Z,94567.38
2023-05-17T15:42:44.945Z,94582.28
2023-05-17T15:45:13.066Z,94577.31
2023-05-17T15:47:43.448Z,94587.72
2023-05-17T15:50:12.318Z,94541.72
2023-05-17T15:52:40.597Z,94604.94
2023-05-17T15:55:12.508Z,94580.94
2023-05-17T15:57:41.568Z,94603.28
2023-05-17T16:00:12.034Z,94612.00
2023-05-17T16:02:40.093Z,94604.28
2023-05-17T16:05:09.348Z,94605.72
2023-05-17T16:07:37.677Z,94617.00
2023-05-17T16:10:06.522Z,94611.72
2023-05-17T16:12:36.103Z,94609.09
2023-05-17T16:15:04.297Z,94618.59
2023-05-17T16:17:32.445Z,94543.41
2023-05-17T16:20:00.857Z,94526.63
2023-05-17T16:22:28.986Z,94621.34
2023-05-17T16:25:01.971Z,94617.09
2023-05-17T16:27:30.045Z,94624.38
2023-05-17T16:29:59.520Z,94623.56
2023-05-17T16:32:28.557Z,94624.53
2023-05-17T16:34:56.684Z,94594.19
2023-05-17T16:37:24.673Z,94629.44
2023-05-17T16:39:52.960Z,94603.13
2023-05-17T16:42:20.938Z,94622.81
2023-05-17T16:44:48.948Z,94627.22
2023-05-17T16:47:18.705Z,94605.63
2023-05-17T16:49:46.738Z,94625.81
2023-05-17T16:52:14.707Z,94552.69
2023-05-17T16:54:42.769Z,94610.97
2023-05-17T16:57:10.982Z,94630.44
2023-05-17T16:59:39.317Z,94629.59
2023-05-17T17:02:07.821Z,94514.53
2023-05-17T17:04:37.308Z,94633.09
2023-05-17T17:07:05.828Z,94638.47
2023-05-17T17:09:34.083Z,94644.25
2023-05-17T17:12:09.523Z,94594.16
2023-05-17T17:14:44.569Z,94646.25
2023-05-17T17:17:12.535Z,94644.03
2023-05-17T17:19:42.509Z,94644.69
2023-05-17T17:22:11.914Z,94597.63
2023-05-17T17:24:39.919Z,94641.44
2023-05-17T17:27:08.001Z,94524.50
2023-05-17T17:29:36.346Z,94549.38
2023-05-17T17:32:05.175Z,94648.63
2023-05-17T17:34:34.057Z,94458.03
2023-05-17T17:37:03.427Z,94644.25
2023-05-17T17:39:31.576Z,94651.69
2023-05-17T17:41:59.593Z,94594.19
2023-05-17T17:44:27.815Z,94652.94
2023-05-17T17:46:57.147Z,94660.72
2023-05-17T17:49:25.135Z,94655.63
2023-05-17T17:51:53.460Z,94650.19
2023-05-17T17:54:23.053Z,94651.78
2023-05-17T17:56:51.090Z,94645.56
2023-05-17T17:59:19.172Z,94529.88
2023-05-17T18:01:47.256Z,94645.84
2023-05-17T18:04:16.291Z,94641.91
2023-05-17T18:06:45.921Z,94637.41
2023-05-17T18:09:15.032Z,94644.75
2023-05-17T18:11:44.468Z,94645.84
2023-05-17T18:14:15.356Z,94621.38
2023-05-17T18:16:43.497Z,94630.81
2023-05-17T18:19:11.705Z,94627.81
2023-05-17T18:21:39.835Z,94633.88
2023-05-17T18:24:08.669Z,94627.88
2023-05-17T18:26:36.648Z,94601.44
2023-05-17T18:29:06.068Z,94632.81
2023-05-17T18:31:34.256Z,94628.31
2023-05-17T18:34:02.686Z,94624.47
2023-05-17T18:36:31.095Z,94623.41
2023-05-17T18:39:00.917Z,94618.69
2023-05-17T18:41:29.144Z,94602.06
2023-05-17T18:44:01.833Z,94621.53
2023-05-17T18:46:31.441Z,94621.03
2023-05-17T18:48:59.419Z,94619.56
2023-05-17T18:51:28.150Z,94633.19
2023-05-17T18:53:56.427Z,94634.53
2023-05-17T18:56:25.269Z,94625.69
2023-05-17T18:58:53.494Z,94645.25
2023-05-17T19:01:22.076Z,94648.38
2023-05-17T19:03:55.180Z,94615.38
2023-05-17T19:06:24.159Z,94667.22
2023-05-17T19:08:52.750Z,94624.75
2023-05-17T19:11:21.157Z,94664.84
2023-05-17T19:13:49.412Z,94588.66
2023-05-17T19:16:17.491Z,94603.63
2023-05-17T19:18:45.570Z,94674.88
2023-05-17T19:21:15.360Z,94675.81
2023-05-17T19:23:43.474Z,94672.28
2023-05-17T19:26:11.715Z,94673.78
2023-05-17T19:28:40.172Z,94682.38
2023-05-17T19:31:09.183Z,94600.09
2023-05-17T19:33:37.873Z,94686.50
2023-05-17T19:36:06.264Z,94686.50
2023-05-17T19:38:35.714Z,94683.06
2023-05-17T19:41:04.112Z,94681.66
2023-05-17T19:43:33.032Z,94683.69
2023-05-17T19:46:01.056Z,94682.75
2023-05-17T19:48:29.164Z,94686.28
2023-05-17T19:50:57.311Z,94551.28
2023-05-17T19:53:25.325Z,94638.59
2023-05-17T19:55:55.302Z,94679.78
2023-05-17T19:58:24.109Z,94679.00
2023-05-17T20:00:52.343Z,94677.47
2023-05-17T20:03:20.874Z,94617.44
2023-05-17T20:05:49.923Z,94593.31
2023-05-17T20:08:17.881Z,94650.72
2023-05-17T20:10:46.021Z,94667.53
2023-05-17T20:13:16.053Z,94669.47
2023-05-17T20:15:44.012Z,94671.84
2023-05-17T20:18:13.376Z,94659.13
2023-05-17T20:20:41.419Z,94663.50
2023-05-17T20:23:09.487Z,94661.56
2023-05-17T20:25:38.364Z,94658.19
2023-05-17T20:28:06.420Z,94664.56
2023-05-17T20:30:35.864Z,94653.94
2023-05-17T20:33:04.274Z,94651.06
2023-05-17T20:35:33.022Z,94574.91
2023-05-17T20:38:01.151Z,94617.56
2023-05-17T20:40:30.049Z,94639.38
2023-05-17T20:42:58.778Z,94626.88
2023-05-17T20:45:29.747Z,94633.22
2023-05-17T20:47:59.371Z,94631.84
2023-05-17T20:50:28.911Z,94628.56
2023-05-17T20:52:57.019Z,94623.34
2023-05-17T20:55:25.340Z,94612.88
2023-05-17T20:57:53.386Z,94616.00
2023-05-17T21:00:21.370Z,94626.06
2023-05-17T21:02:49.496Z,94576.53
2023-05-17T21:05:18.973Z,94629.25
2023-05-17T21:07:47.008Z,94605.63
2023-05-17T21:10:14.995Z,94628.31
2023-05-17T21:12:42.998Z,94626.78
2023-05-17T21:15:16.986Z,94628.56
2023-05-17T21:17:45.585Z,94635.72
2023-05-17T21:20:14.567Z,94591.63
2023-05-17T21:22:44.433Z,94636.34
2023-05-17T21:25:12.615Z,94644.34
2023-05-17T21:27:40.683Z,94640.66
2023-05-17T21:30:09.803Z,94638.47
2023-05-17T21:32:38.465Z,94642.53
2023-05-17T21:35:07.931Z,94648.84
2023-05-17T21:37:37.107Z,94651.47
2023-05-17T21:40:08.176Z,94646.97
2023-05-17T21:42:36.512Z,94647.19
2023-05-17T21:45:04.926Z,94657.00
2023-05-17T21:47:32.952Z,94663.63
2023-05-17T21:50:00.929Z,94662.16
2023-05-17T21:52:29.061Z,94621.00
2023-05-17T21:54:57.067Z,94623.53
2023-05-17T21:57:26.492Z,94652.22
2023-05-17T21:59:54.492Z,94655.22
2023-05-17T22:02:22.644Z,94654.28
2023-05-17T22:04:50.724Z,94657.28
2023-05-17T22:07:18.944Z,94655.22
2023-05-17T22:09:47.564Z,94495.00
2023-05-17T22:12:15.800Z,94664.97
2023-05-17T22:14:45.527Z,94666.13
2023-05-17T22:17:13.638Z,94661.63
2023-05-17T22:19:41.734Z,94640.69
2023-05-17T22:22:09.804Z,94666.50
2023-05-17T22:24:37.976Z,94631.13
2023-05-17T22:27:06.383Z,94625.63
2023-05-17T22:29:34.493Z,94632.81
2023-05-17T22:32:04.118Z,94663.59
2023-05-17T22:34:32.935Z,94655.44
2023-05-17T22:37:01.264Z,94573.91
2023-05-17T22:39:29.239Z,94665.28
2023-05-17T22:41:57.601Z,94660.88
2023-05-17T22:44:26.394Z,94569.03
2023-05-17T22:46:57.767Z,94657.88
2023-05-17T22:49:27.318Z,94664.22
2023-05-17T22:51:55.318Z,94658.25
2023-05-17T22:54:23.401Z,94659.94
2023-05-17T22:56:51.436Z,94662.91
2023-05-17T22:59:19.414Z,94626.28
2023-05-17T23:01:47.412Z,94649.72
2023-05-17T23:04:15.544Z,94627.50
2023-05-17T23:06:44.953Z,94648.53
2023-05-17T23:09:13.407Z,94646.53
2023-05-17T23:11:41.759Z,94651.88
2023-05-17T23:14:11.392Z,94642.25
2023-05-17T23:16:39.996Z,94638.59
2023-05-17T23:19:08.719Z,94623.22
2023-05-17T23:21:37.534Z,94603.88
2023-05-17T23:24:08.152Z,94642.59
2023-05-17T23:26:36.315Z,94611.09
2023-05-17T23:29:05.581Z,94639.66
2023-05-17T23:31:34.292Z,94608.78
2023-05-17T23:34:02.450Z,94639.81
2023-05-17T23:36:30.452Z,94641.31
2023-05-17T23:38:58.423Z,94595.50
2023-05-17T23:41:29.594Z,94605.53
2023-05-17T23:43:58.058Z,94640.31
2023-05-17T23:46:26.844Z,94631.84
2023-05-17T23:48:57.532Z,94636.72
2023-05-17T23:51:25.774Z,94627.81
2023-05-17T23:53:53.770Z,94617.84
2023-05-17T23:56:21.829Z,94618.09
2023-05-17T23:58:51.179Z,94629.13
